createdAt,value
2018-03-03T00:00:58.138Z,-4.07
2018-03-03T00:03:27.867Z,-4.16
2018-03-03T00:05:56.691Z,-3.76
2018-03-03T00:08:26.701Z,-3.49
2018-03-03T00:11:01.125Z,-4.00
2018-03-03T00:13:29.950Z,-3.86
2018-03-03T00:15:58.350Z,-3.91
2018-03-03T00:18:28.197Z,-3.94
2018-03-03T00:20:57.653Z,-4.02
2018-03-03T00:23:27.662Z,-4.17
2018-03-03T00:25:56.332Z,-4.54
2018-03-03T00:28:24.737Z,-4.44
2018-03-03T00:30:53.181Z,-4.17
2018-03-03T00:33:23.560Z,-4.47
2018-03-03T00:35:52.831Z,-4.01
2018-03-03T00:38:22.236Z,-4.47
2018-03-03T00:40:50.978Z,-4.50
2018-03-03T00:43:20.690Z,-4.58
2018-03-03T00:45:50.045Z,-4.63
2018-03-03T00:48:19.102Z,-4.47
2018-03-03T00:50:49.393Z,-4.28
2018-03-03T00:53:19.601Z,-4.64
2018-03-03T00:55:48.040Z,-4.27
2018-03-03T00:58:19.665Z,-3.94
2018-03-03T01:00:48.483Z,-4.28
2018-03-03T01:03:18.959Z,-3.86
2018-03-03T01:05:47.566Z,-3.59
2018-03-03T01:08:16.041Z,-3.86
2018-03-03T01:10:45.027Z,-4.04
2018-03-03T01:13:13.895Z,-4.23
2018-03-03T01:15:42.301Z,-4.09
2018-03-03T01:18:10.718Z,-3.77
2018-03-03T01:20:40.139Z,-3.69
2018-03-03T01:23:08.999Z,-3.93
2018-03-03T01:25:38.310Z,-3.86
2018-03-03T01:28:07.629Z,-3.72
2018-03-03T01:30:36.693Z,-4.25
2018-03-03T01:33:06.747Z,-3.89
2018-03-03T01:35:36.381Z,-4.06
2018-03-03T01:38:05.200Z,-4.24
2018-03-03T01:40:34.374Z,-3.93
2018-03-03T01:43:04.467Z,-3.55
2018-03-03T01:45:33.334Z,-3.83
2018-03-03T01:48:02.229Z,-4.53
2018-03-03T01:50:30.951Z,-4.46
2018-03-03T01:53:00.846Z,-4.45
2018-03-03T01:55:30.691Z,-4.21
2018-03-03T01:57:59.846Z,-4.54
2018-03-03T02:00:30.155Z,-4.56
2018-03-03T02:03:01.208Z,-4.82
2018-03-03T02:05:29.974Z,-4.52
2018-03-03T02:08:00.267Z,-4.25
2018-03-03T02:10:29.080Z,-4.59
2018-03-03T02:12:57.489Z,-4.19
2018-03-03T02:15:26.794Z,-4.11
2018-03-03T02:17:55.646Z,-4.10
2018-03-03T02:20:25.095Z,-4.01
2018-03-03T02:22:54.053Z,-4.18
2018-03-03T02:25:24.190Z,-3.73
2018-03-03T02:27:52.777Z,-4.12
2018-03-03T02:30:21.629Z,-4.34
2018-03-03T02:32:50.390Z,-4.54
2018-03-03T02:35:20.283Z,-4.86
2018-03-03T02:37:49.143Z,-4.76
2018-03-03T02:40:18.872Z,-4.66
2018-03-03T02:42:47.676Z,-4.94
2018-03-03T02:45:16.379Z,-4.46
2018-03-03T02:47:45.233Z,-4.72
2018-03-03T02:50:14.327Z,-4.61
2018-03-03T02:52:43.604Z,-4.88
2018-03-03T02:55:12.010Z,-5.02
2018-03-03T02:57:42.007Z,-5.12
2018-03-03T03:00:11.679Z,-4.63
2018-03-03T03:02:40.775Z,-5.00
2018-03-03T03:05:09.195Z,-5.74
2018-03-03T03:07:38.062Z,-5.63
2018-03-03T03:10:06.999Z,-5.11
2018-03-03T03:12:35.641Z,-5.33
2018-03-03T03:15:04.891Z,-5.32
2018-03-03T03:17:34.090Z,-5.15
2018-03-03T03:20:03.365Z,-4.93
2018-03-03T03:22:33.290Z,-4.85
2018-03-03T03:25:01.827Z,-4.42
2018-03-03T03:27:30.425Z,-4.47
2018-03-03T03:30:00.094Z,-4.75
2018-03-03T03:32:29.793Z,-5.01
2018-03-03T03:34:59.996Z,-5.00
2018-03-03T03:37:28.779Z,-5.39
2018-03-03T03:39:57.527Z,-5.22
2018-03-03T03:42:28.033Z,-5.60
2018-03-03T03:44:56.501Z,-5.22
2018-03-03T03:47:26.272Z,-5.21
2018-03-03T03:49:55.601Z,-5.21
2018-03-03T03:52:25.968Z,-5.75
2018-03-03T03:54:56.520Z,-5.37
2018-03-03T03:57:25.398Z,-5.55
2018-03-03T03:59:56.037Z,-5.26
2018-03-03T04:02:26.017Z,-5.00
2018-03-03T04:04:56.125Z,-5.34
2018-03-03T04:07:25.546Z,-5.69
2018-03-03T04:09:54.323Z,-5.20
2018-03-03T04:12:23.468Z,-5.03
2018-03-03T04:14:52.705Z,-4.90
2018-03-03T04:17:21.433Z,-5.05
2018-03-03T04:19:51.794Z,-4.90
2018-03-03T04:22:21.320Z,-5.14
2018-03-03T04:24:51.707Z,-5.26
2018-03-03T04:27:20.996Z,-5.44
2018-03-03T04:29:49.422Z,-5.36
2018-03-03T04:32:19.223Z,-5.24
2018-03-03T04:34:48.161Z,-5.39
2018-03-03T04:37:18.456Z,-5.44
2018-03-03T04:39:47.442Z,-5.75
2018-03-03T04:42:15.857Z,-5.25
2018-03-03T04:44:45.061Z,-5.29
2018-03-03T04:47:13.988Z,-5.51
2018-03-03T04:49:43.915Z,-5.24
2018-03-03T04:52:14.622Z,-5.34
2018-03-03T04:54:43.067Z,-5.38
2018-03-03T04:57:12.001Z,-5.06
2018-03-03T04:59:57.891Z,-5.66
2018-03-03T05:02:27.863Z,-5.64
2018-03-03T05:08:20.773Z,-6.26
2018-03-03T05:10:51.844Z,-6.26
2018-03-03T05:13:22.612Z,-6.05
2018-03-03T05:19:09.533Z,-5.85
2018-03-03T05:21:44.439Z,-5.71
2018-03-03T05:24:18.410Z,-5.52
2018-03-03T05:26:53.789Z,-5.65
2018-03-03T05:32:33.887Z,-5.58
2018-03-03T05:35:07.941Z,-5.75
2018-03-03T05:37:42.626Z,-5.83
2018-03-03T05:40:19.122Z,-5.67
2018-03-03T05:46:06.474Z,-5.41
2018-03-03T05:48:49.102Z,-5.86
2018-03-03T05:54:29.116Z,-5.74
2018-03-03T05:57:02.839Z,-5.59
2018-03-03T05:59:36.998Z,-5.52
2018-03-03T06:05:26.289Z,-5.95
2018-03-03T06:07:57.434Z,-5.77
2018-03-03T06:10:30.267Z,-6.09
2018-03-03T06:12:59.961Z,-5.78
2018-03-03T06:15:29.477Z,-5.13
2018-03-03T06:17:59.706Z,-4.84
2018-03-03T06:20:28.678Z,-4.83
2018-03-03T06:22:57.451Z,-4.77
2018-03-03T06:25:26.074Z,-4.30
2018-03-03T06:27:54.567Z,-4.00
2018-03-03T06:30:23.394Z,-3.03
2018-03-03T06:32:52.587Z,-2.98
2018-03-03T06:35:22.996Z,-2.89
2018-03-03T06:37:51.625Z,-2.31
2018-03-03T06:40:21.824Z,-2.06
2018-03-03T06:42:51.446Z,-1.93
2018-03-03T06:45:20.334Z,-1.58
2018-03-03T06:47:48.905Z,-0.85
2018-03-03T06:50:18.660Z,-0.38
2018-03-03T06:52:48.884Z,0.25
2018-03-03T06:55:18.669Z,0.75
2018-03-03T06:57:47.228Z,1.07
2018-03-03T07:00:15.968Z,0.35
2018-03-03T07:02:44.917Z,1.28
2018-03-03T07:05:15.216Z,0.74
2018-03-03T07:07:43.593Z,1.33
2018-03-03T07:10:12.417Z,1.92
2018-03-03T07:12:44.326Z,2.12
2018-03-03T07:15:15.424Z,2.93
2018-03-03T07:17:45.294Z,2.98
2018-03-03T07:20:14.775Z,3.24
2018-03-03T07:22:45.069Z,2.70
2018-03-03T07:25:13.857Z,2.88
2018-03-03T07:27:44.485Z,3.36
2018-03-03T07:30:13.433Z,3.63
2018-03-03T07:32:43.350Z,3.49
2018-03-03T07:35:11.874Z,3.55
2018-03-03T07:37:41.706Z,3.65
2018-03-03T07:40:10.333Z,3.31
2018-03-03T07:42:38.910Z,3.59
2018-03-03T07:45:09.100Z,4.40
2018-03-03T07:47:38.293Z,4.78
2018-03-03T07:50:07.584Z,4.35
2018-03-03T07:52:36.551Z,4.93
2018-03-03T07:55:05.559Z,5.28
2018-03-03T07:57:35.595Z,5.38
2018-03-03T08:00:04.720Z,5.58
2018-03-03T08:02:33.672Z,5.01
2018-03-03T08:05:03.554Z,4.40
2018-03-03T08:07:33.522Z,4.55
2018-03-03T08:10:02.861Z,5.13
2018-03-03T08:12:31.346Z,6.08
2018-03-03T08:14:59.708Z,5.44
2018-03-03T08:17:28.066Z,5.18
2018-03-03T08:20:00.139Z,5.88
2018-03-03T08:22:28.892Z,5.63
2018-03-03T08:24:57.693Z,5.66
2018-03-03T08:27:28.680Z,5.41
2018-03-03T08:29:58.851Z,5.43
2018-03-03T08:32:27.557Z,4.51
2018-03-03T08:35:01.502Z,4.83
2018-03-03T08:37:30.554Z,4.53
2018-03-03T08:40:00.890Z,4.76
2018-03-03T08:42:29.720Z,5.26
2018-03-03T08:44:58.094Z,5.10
2018-03-03T08:47:26.918Z,5.24
2018-03-03T08:49:56.488Z,5.30
2018-03-03T08:52:25.899Z,5.00
2018-03-03T08:54:54.711Z,4.27
2018-03-03T08:57:23.115Z,4.77
2018-03-03T08:59:52.812Z,5.77
2018-03-03T09:02:21.176Z,6.97
2018-03-03T09:04:49.522Z,7.15
2018-03-03T09:07:17.863Z,6.63
2018-03-03T09:09:46.646Z,6.04
2018-03-03T09:12:15.404Z,6.61
2018-03-03T09:14:43.759Z,6.47
2018-03-03T09:17:12.122Z,6.83
2018-03-03T09:19:40.544Z,6.06
2018-03-03T09:22:08.908Z,6.27
2018-03-03T09:24:37.266Z,7.15
2018-03-03T09:27:05.619Z,7.10
2018-03-03T09:29:33.972Z,7.26
2018-03-03T09:32:02.349Z,7.85
2018-03-03T09:34:31.227Z,7.45
2018-03-03T09:37:00.067Z,8.58
2018-03-03T09:39:28.468Z,8.20
2018-03-03T09:41:56.861Z,6.79
2018-03-03T09:44:25.242Z,6.82
2018-03-03T09:46:53.599Z,5.67
2018-03-03T09:49:22.033Z,5.55
2018-03-03T09:51:50.779Z,6.75
2018-03-03T09:54:19.139Z,5.97
2018-03-03T09:56:47.495Z,6.94
2018-03-03T09:59:15.841Z,8.27
2018-03-03T10:01:44.215Z,8.74
2018-03-03T10:04:12.557Z,8.32
2018-03-03T10:06:40.912Z,8.25
2018-03-03T10:09:09.320Z,8.71
2018-03-03T10:11:37.691Z,7.72
2018-03-03T10:14:06.084Z,7.84
2018-03-03T10:16:34.422Z,7.55
2018-03-03T10:19:04.921Z,7.76
2018-03-03T10:21:33.258Z,7.37
2018-03-03T10:24:01.634Z,6.87
2018-03-03T10:26:29.978Z,6.98
2018-03-03T10:28:58.720Z,7.80
2018-03-03T10:31:27.087Z,7.73
2018-03-03T10:33:55.439Z,7.17
2018-03-03T10:36:23.860Z,6.80
2018-03-03T10:38:52.306Z,6.87
2018-03-03T10:41:20.711Z,6.51
2018-03-03T10:43:49.085Z,5.58
2018-03-03T10:46:17.448Z,6.14
2018-03-03T10:48:45.848Z,6.27
2018-03-03T10:51:14.198Z,6.36
2018-03-03T10:53:42.613Z,6.48
2018-03-03T10:56:10.958Z,6.63
2018-03-03T10:58:39.356Z,6.99
2018-03-03T11:01:07.821Z,7.13
2018-03-03T11:03:36.171Z,7.34
2018-03-03T11:06:04.931Z,6.32
2018-03-03T11:08:33.383Z,5.85
2018-03-03T11:11:01.735Z,5.14
2018-03-03T11:13:30.162Z,5.52
2018-03-03T11:15:58.538Z,4.94
2018-03-03T11:18:26.883Z,4.73
2018-03-03T11:20:55.287Z,5.34
2018-03-03T11:23:23.638Z,4.66
2018-03-03T11:25:52.034Z,4.05
2018-03-03T11:28:20.400Z,3.99
2018-03-03T11:30:48.773Z,3.78
2018-03-03T11:33:17.127Z,3.65
2018-03-03T11:35:45.891Z,3.44
2018-03-03T11:38:14.339Z,2.70
2018-03-03T11:40:42.692Z,2.05
2018-03-03T11:43:11.051Z,1.80
2018-03-03T11:45:39.808Z,1.66
2018-03-03T11:48:08.228Z,0.81
2018-03-03T11:50:36.578Z,1.82
2018-03-03T11:53:05.026Z,1.61
2018-03-03T11:55:33.400Z,1.44
2018-03-03T11:58:01.799Z,1.64
2018-03-03T12:00:30.163Z,1.33
2018-03-03T12:02:58.533Z,1.32
2018-03-03T12:05:26.920Z,1.47
2018-03-03T12:07:55.272Z,2.14
2018-03-03T12:10:23.626Z,2.33
2018-03-03T12:12:52.371Z,1.87
2018-03-03T12:15:20.737Z,2.59
2018-03-03T12:17:49.092Z,1.80
2018-03-03T12:20:17.460Z,2.19
2018-03-03T12:22:45.805Z,1.74
2018-03-03T12:25:14.163Z,2.04
2018-03-03T12:27:42.527Z,1.65
2018-03-03T12:30:10.886Z,1.80
2018-03-03T12:32:39.271Z,1.64
2018-03-03T12:35:07.690Z,1.89
2018-03-03T12:37:36.047Z,2.21
2018-03-03T12:40:04.451Z,2.17
2018-03-03T12:42:32.912Z,2.22
2018-03-03T12:45:01.328Z,2.32
2018-03-03T12:47:30.210Z,2.57
2018-03-03T12:49:58.581Z,2.99
2018-03-03T12:52:27.531Z,2.86
2018-03-03T12:54:55.901Z,3.01
2018-03-03T12:57:24.321Z,2.58
2018-03-03T12:59:52.682Z,2.06
2018-03-03T13:02:21.062Z,2.47
2018-03-03T13:04:49.447Z,2.78
2018-03-03T13:07:17.875Z,2.28
2018-03-03T13:09:46.641Z,2.16
2018-03-03T13:12:15.123Z,2.17
2018-03-03T13:14:43.476Z,1.67
2018-03-03T13:17:11.891Z,1.75
2018-03-03T13:19:40.749Z,1.95
2018-03-03T13:22:09.097Z,2.03
2018-03-03T13:24:37.469Z,2.68
2018-03-03T13:27:05.891Z,2.70
2018-03-03T13:29:34.234Z,2.03
2018-03-03T13:32:02.585Z,2.37
2018-03-03T13:34:31.351Z,2.38
2018-03-03T13:36:59.820Z,3.15
2018-03-03T13:39:28.348Z,3.24
2018-03-03T13:41:56.771Z,2.63
2018-03-03T13:44:25.150Z,2.36
2018-03-03T13:46:53.551Z,2.32
2018-03-03T13:49:21.912Z,2.08
2018-03-03T13:51:50.264Z,2.91
2018-03-03T13:54:18.704Z,2.24
2018-03-03T13:56:47.459Z,2.64
2018-03-03T13:59:15.803Z,2.71
2018-03-03T14:01:44.224Z,2.54
2018-03-03T14:04:12.703Z,2.03
2018-03-03T14:06:41.075Z,2.22
2018-03-03T14:09:09.432Z,2.39
2018-03-03T14:11:37.804Z,1.85
2018-03-03T14:14:06.173Z,1.78
2018-03-03T14:16:34.577Z,2.02
2018-03-03T14:19:02.936Z,2.61
2018-03-03T14:21:31.298Z,2.86
2018-03-03T14:23:59.658Z,2.62
2018-03-03T14:26:28.407Z,2.12
2018-03-03T14:28:56.814Z,2.27
2018-03-03T14:31:25.217Z,2.88
2018-03-03T14:33:53.648Z,2.33
2018-03-03T14:36:21.996Z,2.34
2018-03-03T14:38:50.355Z,2.19
2018-03-03T14:41:19.103Z,1.95
2018-03-03T14:43:47.517Z,2.10
2018-03-03T14:46:16.252Z,2.52
2018-03-03T14:48:44.610Z,1.95
2018-03-03T14:51:12.996Z,2.55
2018-03-03T14:53:41.356Z,2.35
2018-03-03T14:56:09.714Z,2.45
2018-03-03T14:58:38.482Z,3.00
2018-03-03T15:01:06.937Z,3.21
2018-03-03T15:03:35.301Z,2.95
2018-03-03T15:06:03.652Z,2.39
2018-03-03T15:08:32.049Z,2.97
2018-03-03T15:11:00.404Z,2.71
2018-03-03T15:13:28.840Z,2.71
2018-03-03T15:15:57.188Z,2.37
2018-03-03T15:18:25.547Z,2.77
2018-03-03T15:20:53.896Z,2.97
2018-03-03T15:23:22.256Z,2.61
2018-03-03T15:25:50.608Z,2.42
2018-03-03T15:28:18.966Z,2.49
2018-03-03T15:30:47.308Z,2.42
2018-03-03T15:33:15.664Z,1.77
2018-03-03T15:35:44.055Z,2.36
2018-03-03T15:38:12.443Z,1.94
2018-03-03T15:40:40.906Z,1.97
2018-03-03T15:43:09.287Z,1.98
2018-03-03T15:45:37.656Z,1.88
2018-03-03T15:48:06.019Z,1.75
2018-03-03T15:50:34.377Z,2.49
2018-03-03T15:53:02.822Z,2.37
2018-03-03T15:55:31.679Z,2.06
2018-03-03T15:58:00.090Z,1.98
2018-03-03T16:00:28.541Z,1.87
2018-03-03T16:02:56.931Z,1.90
2018-03-03T16:05:25.313Z,2.35
2018-03-03T16:07:53.704Z,2.03
2018-03-03T16:10:22.072Z,2.31
2018-03-03T16:12:50.447Z,2.19
2018-03-03T16:15:18.808Z,1.95
2018-03-03T16:17:47.185Z,2.47
2018-03-03T16:20:15.540Z,2.35
2018-03-03T16:22:43.907Z,2.29
2018-03-03T16:25:12.272Z,2.47
2018-03-03T16:27:41.031Z,2.44
2018-03-03T16:30:09.397Z,2.16
2018-03-03T16:32:37.781Z,2.31
2018-03-03T16:35:06.146Z,1.81
2018-03-03T16:37:34.555Z,1.92
2018-03-03T16:40:02.932Z,1.95
2018-03-03T16:42:31.315Z,1.80
2018-03-03T16:44:59.725Z,1.89
2018-03-03T16:47:28.502Z,1.80
2018-03-03T16:49:57.011Z,1.70
2018-03-03T16:52:25.396Z,1.21
2018-03-03T16:54:53.752Z,1.68
2018-03-03T16:57:22.218Z,1.38
2018-03-03T16:59:50.982Z,1.63
2018-03-03T17:02:19.364Z,1.82
2018-03-03T17:04:47.738Z,1.39
2018-03-03T17:07:16.103Z,1.46
2018-03-03T17:09:44.467Z,1.78
2018-03-03T17:12:12.839Z,1.50
2018-03-03T17:14:41.223Z,1.85
2018-03-03T17:17:09.599Z,1.83
2018-03-03T17:19:37.967Z,1.97
2018-03-03T17:22:06.336Z,1.89
2018-03-03T17:24:34.712Z,2.04
2018-03-03T17:27:03.117Z,1.93
2018-03-03T17:29:31.470Z,1.78
2018-03-03T17:31:59.841Z,1.61
2018-03-03T17:34:28.190Z,1.42
2018-03-03T17:36:56.784Z,1.71
2018-03-03T17:39:25.142Z,1.50
2018-03-03T17:41:53.536Z,1.43
2018-03-03T17:44:21.906Z,1.75
2018-03-03T17:46:50.289Z,1.51
2018-03-03T17:49:18.692Z,1.58
2018-03-03T17:51:47.648Z,1.71
2018-03-03T17:54:16.029Z,1.56
2018-03-03T17:56:44.487Z,1.74
2018-03-03T17:59:12.968Z,1.61
2018-03-03T18:01:41.364Z,1.24
2018-03-03T18:04:09.729Z,1.21
2018-03-03T18:06:38.185Z,0.91
2018-03-03T18:09:06.540Z,1.04
2018-03-03T18:11:35.390Z,1.43
2018-03-03T18:14:03.774Z,1.69
2018-03-03T18:16:32.149Z,1.42
2018-03-03T18:19:01.272Z,1.16
2018-03-03T18:21:30.039Z,1.53
2018-03-03T18:23:58.395Z,1.23
2018-03-03T18:26:26.767Z,1.12
2018-03-03T18:28:55.152Z,1.28
2018-03-03T18:31:23.963Z,1.12
2018-03-03T18:33:52.314Z,0.82
2018-03-03T18:36:20.708Z,0.89
2018-03-03T18:38:49.071Z,0.94
2018-03-03T18:41:17.453Z,1.21
2018-03-03T18:43:45.821Z,1.25
2018-03-03T18:46:14.348Z,0.90
2018-03-03T18:48:42.703Z,0.79
2018-03-03T18:51:11.132Z,0.97
2018-03-03T18:53:39.557Z,1.07
2018-03-03T18:56:08.116Z,1.23
2018-03-03T18:58:36.577Z,0.65
2018-03-03T19:01:05.337Z,1.13
2018-03-03T19:03:33.736Z,0.87
2018-03-03T19:06:02.510Z,1.01
2018-03-03T19:08:30.885Z,1.10
2018-03-03T19:10:59.280Z,0.89
2018-03-03T19:13:28.031Z,0.56
2018-03-03T19:15:56.418Z,0.62
2018-03-03T19:18:24.758Z,0.75
2018-03-03T19:20:53.155Z,0.84
2018-03-03T19:23:21.529Z,0.70
2018-03-03T19:25:49.916Z,0.62
2018-03-03T19:28:18.276Z,0.99
2018-03-03T19:30:46.681Z,1.01
2018-03-03T19:33:15.129Z,0.76
2018-03-03T19:35:43.524Z,0.35
2018-03-03T19:38:11.876Z,0.73
2018-03-03T19:40:40.259Z,0.46
2018-03-03T19:43:08.652Z,0.14
2018-03-03T19:45:37.022Z,0.06
2018-03-03T19:48:05.378Z,0.35
2018-03-03T19:50:33.798Z,0.38
2018-03-03T19:53:02.222Z,0.43
2018-03-03T19:55:30.638Z,0.28
2018-03-03T19:57:59.056Z,0.48
2018-03-03T20:00:27.431Z,0.21
2018-03-03T20:02:55.911Z,0.03
2018-03-03T20:05:24.343Z,0.25
2018-03-03T20:07:52.719Z,0.27
2018-03-03T20:10:21.131Z,0.31
2018-03-03T20:12:49.572Z,0.28
2018-03-03T20:15:18.351Z,0.22
2018-03-03T20:17:46.714Z,0.04
2018-03-03T20:20:15.503Z,0.29
2018-03-03T20:22:43.869Z,0.44
2018-03-03T20:25:12.254Z,0.55
2018-03-03T20:27:40.627Z,0.43
2018-03-03T20:30:09.082Z,0.43
2018-03-03T20:32:37.486Z,0.70
2018-03-03T20:35:05.866Z,0.23
2018-03-03T20:37:34.298Z,0.14
2018-03-03T20:40:02.704Z,0.57
2018-03-03T20:42:31.106Z,0.13
2018-03-03T20:45:00.004Z,0.52
2018-03-03T20:47:28.382Z,0.46
2018-03-03T20:49:57.192Z,0.43
2018-03-03T20:52:25.652Z,0.08
2018-03-03T20:54:54.031Z,0.16
2018-03-03T20:57:22.923Z,-0.21
2018-03-03T20:59:51.709Z,0.07
2018-03-03T21:02:21.342Z,0.04
2018-03-03T21:04:50.743Z,-0.15
2018-03-03T21:07:19.172Z,-0.03
2018-03-03T21:09:47.891Z,-0.08
2018-03-03T21:12:18.704Z,-0.54
2018-03-03T21:14:48.280Z,-0.25
2018-03-03T21:17:17.151Z,-0.32
2018-03-03T21:19:45.630Z,-0.51
2018-03-03T21:22:15.893Z,-0.57
2018-03-03T21:24:45.224Z,-0.59
2018-03-03T21:27:14.147Z,-0.55
2018-03-03T21:29:44.993Z,-0.55
2018-03-03T21:32:14.301Z,-0.33
2018-03-03T21:34:42.704Z,-0.50
2018-03-03T21:37:11.118Z,-0.65
2018-03-03T21:39:40.423Z,-0.87
2018-03-03T21:42:09.253Z,-0.61
2018-03-03T21:44:37.656Z,-0.68
2018-03-03T21:47:07.130Z,-0.20
2018-03-03T21:49:36.528Z,-0.55
2018-03-03T21:52:05.822Z,-0.44
2018-03-03T21:54:34.269Z,-0.60
2018-03-03T21:57:04.033Z,-0.71
2018-03-03T21:59:35.180Z,-0.52
2018-03-03T22:02:03.626Z,-0.73
2018-03-03T22:04:32.046Z,-0.77
2018-03-03T22:07:00.469Z,-0.30
2018-03-03T22:09:30.079Z,-0.51
2018-03-03T22:11:58.885Z,-0.82
2018-03-03T22:14:28.101Z,-0.99
2018-03-03T22:16:56.610Z,-1.09
2018-03-03T22:19:26.164Z,-0.73
2018-03-03T22:21:55.686Z,-0.69
2018-03-03T22:24:25.105Z,-0.77
2018-03-03T22:26:54.078Z,-0.77
2018-03-03T22:29:23.594Z,-1.00
2018-03-03T22:31:52.095Z,-1.27
2018-03-03T22:34:20.837Z,-0.73
2018-03-03T22:36:50.263Z,-0.73
2018-03-03T22:39:18.666Z,-1.14
2018-03-03T22:41:47.063Z,-1.14
2018-03-03T22:44:16.109Z,-1.12
2018-03-03T22:46:45.262Z,-1.21
2018-03-03T22:49:14.310Z,-1.23
2018-03-03T22:51:44.376Z,-1.25
2018-03-03T22:54:14.910Z,-1.02
2018-03-03T22:56:43.879Z,-1.12
2018-03-03T22:59:13.892Z,-0.93
2018-03-03T23:01:43.882Z,-0.98
2018-03-03T23:04:12.365Z,-0.81
2018-03-03T23:06:40.777Z,-1.37
2018-03-03T23:09:09.619Z,-1.39
2018-03-03T23:11:38.025Z,-1.12
2018-03-03T23:14:06.442Z,-1.35
2018-03-03T23:16:35.316Z,-1.22
2018-03-03T23:19:04.102Z,-0.98
2018-03-03T23:21:32.806Z,-1.13
2018-03-03T23:24:01.396Z,-1.21
2018-03-03T23:26:29.919Z,-1.27
2018-03-03T23:29:00.316Z,-1.38
2018-03-03T23:31:30.389Z,-1.79
2018-03-03T23:33:59.349Z,-1.37
2018-03-03T23:36:28.343Z,-1.39
2018-03-03T23:38:56.823Z,-1.50
2018-03-03T23:41:25.258Z,-1.27
2018-03-03T23:43:55.359Z,-1.20
2018-03-03T23:46:24.193Z,-1.75
2018-03-03T23:48:55.814Z,-1.56
2018-03-03T23:51:24.646Z,-1.64
2018-03-03T23:53:53.780Z,-1.24
2018-03-03T23:56:23.752Z,-1.48
2018-03-03T23:58:53.389Z,-1.42
